Terminal Aerodrome Forecast
Issued by NWS

Home | Current Version | Previous Version | Text Only | Print | Product List | Glossary On
Versions: 1 2 3 4 5 6 7 8 9 10 11 12 13 14 15
000
FTUS44 KLIX 180400 AAA
TAFMSY
TAF AMD
KMSY 180409Z 1804/1824 09011G20KT P6SM FEW020 OVC070
     FM181100 03015KT P6SM BKN008
     FM182100 03009KT P6SM SCT050=

USA.gov is the U.S. government's official web portal to all federal, state and local government web resources and services.